sensor_id;sensor_type;location;lat;lon;timestamp;temperature;humidity
18712;DHT22;9485;49.386;8.674;2023-03-01T00:00:00;4.90;51.30
18712;DHT22;9485;49.386;8.674;2023-03-01T00:05:23;4.90;51.40
18712;DHT22;9485;49.386;8.674;2023-03-01T00:10:43;4.90;51.40
18712;DHT22;9485;49.386;8.674;2023-03-01T00:16:06;4.90;51.80
18712;DHT22;9485;49.386;8.674;2023-03-01T00:21:29;4.90;51.70
18712;DHT22;9485;49.386;8.674;2023-03-01T00:26:53;4.90;51.60
18712;DHT22;9485;49.386;8.674;2023-03-01T00:32:14;4.90;51.90
18712;DHT22;9485;49.386;8.674;2023-03-01T00:37:37;4.90;51.40
18712;DHT22;9485;49.386;8.674;2023-03-01T00:42:59;5.00;51.60
18712;DHT22;9485;49.386;8.674;2023-03-01T00:48:21;4.90;51.50
18712;DHT22;9485;49.386;8.674;2023-03-01T00:53:43;5.00;51.60
18712;DHT22;9485;49.386;8.674;2023-03-01T00:59:04;4.90;51.80
18712;DHT22;9485;49.386;8.674;2023-03-01T01:04:25;4.90;51.70
18712;DHT22;9485;49.386;8.674;2023-03-01T01:09:47;4.90;51.80
18712;DHT22;9485;49.386;8.674;2023-03-01T01:15:08;4.90;51.80
18712;DHT22;9485;49.386;8.674;2023-03-01T01:20:32;4.90;51.90
18712;DHT22;9485;49.386;8.674;2023-03-01T01:25:54;4.90;51.70
18712;DHT22;9485;49.386;8.674;2023-03-01T01:31:16;4.90;51.70
18712;DHT22;9485;49.386;8.674;2023-03-01T01:36:38;4.90;51.80
18712;DHT22;9485;49.386;8.674;2023-03-01T01:42:00;4.90;51.70
18712;DHT22;9485;49.386;8.674;2023-03-01T01:47:22;4.90;51.70
18712;DHT22;9485;49.386;8.674;2023-03-01T01:52:45;4.90;51.80
18712;DHT22;9485;49.386;8.674;2023-03-01T01:58:13;4.90;52.00
18712;DHT22;9485;49.386;8.674;2023-03-01T02:03:38;4.90;52.10
18712;DHT22;9485;49.386;8.674;2023-03-01T02:09:06;4.90;52.20
18712;DHT22;9485;49.386;8.674;2023-03-01T02:14:33;5.00;52.40
18712;DHT22;9485;49.386;8.674;2023-03-01T02:20:07;4.90;52.10
18712;DHT22;9485;49.386;8.674;2023-03-01T02:25:43;5.00;52.30
18712;DHT22;9485;49.386;8.674;2023-03-01T02:31:16;4.90;52.10
18712;DHT22;9485;49.386;8.674;2023-03-01T02:37:01;4.90;52.10
18712;DHT22;9485;49.386;8.674;2023-03-01T02:42:32;4.90;52.30
18712;DHT22;9485;49.386;8.674;2023-03-01T02:47:59;4.80;52.10
18712;DHT22;9485;49.386;8.674;2023-03-01T02:53:25;4.80;52.20
18712;DHT22;9485;49.386;8.674;2023-03-01T02:58:52;4.80;52.30
18712;DHT22;9485;49.386;8.674;2023-03-01T03:04:16;4.70;52.20
18712;DHT22;9485;49.386;8.674;2023-03-01T03:09:41;4.70;52.30
18712;DHT22;9485;49.386;8.674;2023-03-01T03:15:02;4.70;52.70
18712;DHT22;9485;49.386;8.674;2023-03-01T03:20:29;4.60;52.50
18712;DHT22;9485;49.386;8.674;2023-03-01T03:25:51;4.60;52.50
18712;DHT22;9485;49.386;8.674;2023-03-01T03:31:12;4.60;52.60
18712;DHT22;9485;49.386;8.674;2023-03-01T03:36:34;4.60;52.50
18712;DHT22;9485;49.386;8.674;2023-03-01T03:41:55;4.60;52.40
18712;DHT22;9485;49.386;8.674;2023-03-01T03:47:16;4.60;52.40
18712;DHT22;9485;49.386;8.674;2023-03-01T03:52:38;4.60;52.50
18712;DHT22;9485;49.386;8.674;2023-03-01T03:58:00;4.60;52.50
18712;DHT22;9485;49.386;8.674;2023-03-01T04:03:26;4.50;52.60
18712;DHT22;9485;49.386;8.674;2023-03-01T04:08:49;4.50;52.80
18712;DHT22;9485;49.386;8.674;2023-03-01T04:14:17;4.50;52.90
18712;DHT22;9485;49.386;8.674;2023-03-01T04:19:38;4.50;52.80
18712;DHT22;9485;49.386;8.674;2023-03-01T04:25:06;4.50;53.10
18712;DHT22;9485;49.386;8.674;2023-03-01T04:30:27;4.60;53.10
18712;DHT22;9485;49.386;8.674;2023-03-01T04:35:48;4.60;53.00
18712;DHT22;9485;49.386;8.674;2023-03-01T04:41:10;4.60;52.90
18712;DHT22;9485;49.386;8.674;2023-03-01T04:46:31;4.60;53.00
18712;DHT22;9485;49.386;8.674;2023-03-01T04:51:52;4.60;53.10
18712;DHT22;9485;49.386;8.674;2023-03-01T04:57:14;4.50;53.00
18712;DHT22;9485;49.386;8.674;2023-03-01T05:02:35;4.50;53.00
18712;DHT22;9485;49.386;8.674;2023-03-01T05:07:56;4.50;53.20
18712;DHT22;9485;49.386;8.674;2023-03-01T05:13:21;4.50;53.10
18712;DHT22;9485;49.386;8.674;2023-03-01T05:18:42;4.40;53.10
18712;DHT22;9485;49.386;8.674;2023-03-01T05:24:03;4.40;53.10
18712;DHT22;9485;49.386;8.674;2023-03-01T05:29:32;4.40;53.10
18712;DHT22;9485;49.386;8.674;2023-03-01T05:34:54;4.40;53.20
18712;DHT22;9485;49.386;8.674;2023-03-01T05:40:16;4.30;53.80
18712;DHT22;9485;49.386;8.674;2023-03-01T05:45:40;4.30;53.40
18712;DHT22;9485;49.386;8.674;2023-03-01T05:51:06;4.30;53.80
18712;DHT22;9485;49.386;8.674;2023-03-01T05:56:26;4.30;53.20
18712;DHT22;9485;49.386;8.674;2023-03-01T06:01:48;4.30;53.30
18712;DHT22;9485;49.386;8.674;2023-03-01T06:07:08;4.30;53.40
18712;DHT22;9485;49.386;8.674;2023-03-01T06:12:30;4.30;53.50
18712;DHT22;9485;49.386;8.674;2023-03-01T06:17:54;4.30;53.50
18712;DHT22;9485;49.386;8.674;2023-03-01T06:23:17;4.40;53.50
18712;DHT22;9485;49.386;8.674;2023-03-01T06:28:37;4.30;53.40
18712;DHT22;9485;49.386;8.674;2023-03-01T06:33:59;4.30;53.40
18712;DHT22;9485;49.386;8.674;2023-03-01T06:39:21;4.30;53.50
18712;DHT22;9485;49.386;8.674;2023-03-01T06:44:41;4.30;53.40
18712;DHT22;9485;49.386;8.674;2023-03-01T06:50:05;4.30;53.40
18712;DHT22;9485;49.386;8.674;2023-03-01T06:55:27;4.30;53.60
18712;DHT22;9485;49.386;8.674;2023-03-01T07:00:49;4.70;53.70
18712;DHT22;9485;49.386;8.674;2023-03-01T07:06:12;4.70;53.70
18712;DHT22;9485;49.386;8.674;2023-03-01T07:11:34;4.40;53.60
18712;DHT22;9485;49.386;8.674;2023-03-01T07:16:55;4.50;53.70
18712;DHT22;9485;49.386;8.674;2023-03-01T07:22:18;4.50;54.00
18712;DHT22;9485;49.386;8.674;2023-03-01T07:27:41;4.60;53.80
18712;DHT22;9485;49.386;8.674;2023-03-01T07:33:03;4.60;54.00
18712;DHT22;9485;49.386;8.674;2023-03-01T07:38:31;4.70;54.00
18712;DHT22;9485;49.386;8.674;2023-03-01T07:43:53;4.80;54.10
18712;DHT22;9485;49.386;8.674;2023-03-01T07:49:15;4.90;53.90
18712;DHT22;9485;49.386;8.674;2023-03-01T07:54:39;5.10;54.00
18712;DHT22;9485;49.386;8.674;2023-03-01T08:00:10;5.20;53.90
18712;DHT22;9485;49.386;8.674;2023-03-01T08:05:32;5.30;53.70
18712;DHT22;9485;49.386;8.674;2023-03-01T08:10:56;5.50;53.80
18712;DHT22;9485;49.386;8.674;2023-03-01T08:16:18;5.70;53.80
18712;DHT22;9485;49.386;8.674;2023-03-01T08:21:40;6.20;53.80
18712;DHT22;9485;49.386;8.674;2023-03-01T08:27:03;6.70;53.30
18712;DHT22;9485;49.386;8.674;2023-03-01T08:32:25;7.20;53.20
18712;DHT22;9485;49.386;8.674;2023-03-01T08:37:46;7.70;52.80
18712;DHT22;9485;49.386;8.674;2023-03-01T08:43:09;8.30;52.90
18712;DHT22;9485;49.386;8.674;2023-03-01T08:48:30;9.00;52.60
18712;DHT22;9485;49.386;8.674;2023-03-01T08:53:52;9.90;52.00
18712;DHT22;9485;49.386;8.674;2023-03-01T08:59:17;10.80;52.30
18712;DHT22;9485;49.386;8.674;2023-03-01T09:04:41;11.80;51.30
18712;DHT22;9485;49.386;8.674;2023-03-01T09:10:05;13.00;51.40
18712;DHT22;9485;49.386;8.674;2023-03-01T09:15:28;13.70;50.30
18712;DHT22;9485;49.386;8.674;2023-03-01T09:20:50;14.60;49.80
18712;DHT22;9485;49.386;8.674;2023-03-01T09:26:16;15.60;47.60
18712;DHT22;9485;49.386;8.674;2023-03-01T09:31:46;16.20;46.90
18712;DHT22;9485;49.386;8.674;2023-03-01T09:37:14;16.50;46.10
18712;DHT22;9485;49.386;8.674;2023-03-01T09:42:36;16.80;45.40
18712;DHT22;9485;49.386;8.674;2023-03-01T09:48:15;16.90;44.90
18712;DHT22;9485;49.386;8.674;2023-03-01T09:53:40;17.00;43.90
18712;DHT22;9485;49.386;8.674;2023-03-01T09:59:11;17.00;44.00
18712;DHT22;9485;49.386;8.674;2023-03-01T10:04:47;16.80;43.50
18712;DHT22;9485;49.386;8.674;2023-03-01T10:10:21;16.90;44.00
18712;DHT22;9485;49.386;8.674;2023-03-01T10:15:51;17.20;43.10
18712;DHT22;9485;49.386;8.674;2023-03-01T10:21:20;17.90;43.40
18712;DHT22;9485;49.386;8.674;2023-03-01T10:26:51;18.60;43.80
18712;DHT22;9485;49.386;8.674;2023-03-01T10:32:15;19.10;41.90
18712;DHT22;9485;49.386;8.674;2023-03-01T10:37:57;19.50;41.50
18712;DHT22;9485;49.386;8.674;2023-03-01T10:43:20;19.70;39.40
18712;DHT22;9485;49.386;8.674;2023-03-01T10:48:44;20.00;40.60
18712;DHT22;9485;49.386;8.674;2023-03-01T10:54:16;20.50;40.50
18712;DHT22;9485;49.386;8.674;2023-03-01T10:59:46;21.00;38.50
18712;DHT22;9485;49.386;8.674;2023-03-01T11:05:33;21.30;38.90
18712;DHT22;9485;49.386;8.674;2023-03-01T11:11:16;21.30;38.40
18712;DHT22;9485;49.386;8.674;2023-03-01T11:16:47;20.80;36.50
18712;DHT22;9485;49.386;8.674;2023-03-01T11:22:12;20.20;37.40
18712;DHT22;9485;49.386;8.674;2023-03-01T11:27:39;19.60;37.40
18712;DHT22;9485;49.386;8.674;2023-03-01T11:33:16;19.20;38.20
18712;DHT22;9485;49.386;8.674;2023-03-01T11:38:45;19.00;37.50
18712;DHT22;9485;49.386;8.674;2023-03-01T11:44:16;18.60;38.30
18712;DHT22;9485;49.386;8.674;2023-03-01T11:50:02;18.90;37.70
18712;DHT22;9485;49.386;8.674;2023-03-01T11:55:48;18.90;37.60
18712;DHT22;9485;49.386;8.674;2023-03-01T12:01:41;18.70;38.20
18712;DHT22;9485;49.386;8.674;2023-03-01T12:07:27;18.70;37.40
18712;DHT22;9485;49.386;8.674;2023-03-01T12:19:16;19.10;37.60
18712;DHT22;9485;49.386;8.674;2023-03-01T12:25:07;19.50;37.70
18712;DHT22;9485;49.386;8.674;2023-03-01T12:31:07;19.80;37.90
18712;DHT22;9485;49.386;8.674;2023-03-01T12:36:58;20.20;37.10
18712;DHT22;9485;49.386;8.674;2023-03-01T12:42:46;20.50;38.20
18712;DHT22;9485;49.386;8.674;2023-03-01T12:48:30;20.70;37.60
18712;DHT22;9485;49.386;8.674;2023-03-01T12:54:05;20.80;37.30
18712;DHT22;9485;49.386;8.674;2023-03-01T12:59:37;20.70;37.60
18712;DHT22;9485;49.386;8.674;2023-03-01T13:05:24;20.60;37.70
18712;DHT22;9485;49.386;8.674;2023-03-01T13:10:56;20.40;37.00
18712;DHT22;9485;49.386;8.674;2023-03-01T13:16:38;20.10;37.50
18712;DHT22;9485;49.386;8.674;2023-03-01T13:22:25;19.90;37.90
18712;DHT22;9485;49.386;8.674;2023-03-01T13:27:50;19.70;37.10
18712;DHT22;9485;49.386;8.674;2023-03-01T13:33:39;19.50;37.50
18712;DHT22;9485;49.386;8.674;2023-03-01T13:39:04;19.30;36.90
18712;DHT22;9485;49.386;8.674;2023-03-01T13:44:47;19.10;37.20
18712;DHT22;9485;49.386;8.674;2023-03-01T13:50:18;18.80;37.60
18712;DHT22;9485;49.386;8.674;2023-03-01T13:55:43;18.50;37.60
18712;DHT22;9485;49.386;8.674;2023-03-01T14:01:18;18.30;37.60
18712;DHT22;9485;49.386;8.674;2023-03-01T14:06:42;18.10;37.60
18712;DHT22;9485;49.386;8.674;2023-03-01T14:12:12;17.80;37.60
18712;DHT22;9485;49.386;8.674;2023-03-01T14:17:49;17.30;37.10
18712;DHT22;9485;49.386;8.674;2023-03-01T14:23:19;16.80;37.20
18712;DHT22;9485;49.386;8.674;2023-03-01T14:28:42;16.60;38.20
18712;DHT22;9485;49.386;8.674;2023-03-01T14:34:05;16.40;38.10
18712;DHT22;9485;49.386;8.674;2023-03-01T14:39:27;16.20;38.20
18712;DHT22;9485;49.386;8.674;2023-03-01T14:44:50;16.10;38.60
18712;DHT22;9485;49.386;8.674;2023-03-01T14:50:22;15.90;38.30
18712;DHT22;9485;49.386;8.674;2023-03-01T14:55:47;15.60;38.40
18712;DHT22;9485;49.386;8.674;2023-03-01T15:01:15;15.30;38.30
18712;DHT22;9485;49.386;8.674;2023-03-01T15:06:42;15.20;38.90
18712;DHT22;9485;49.386;8.674;2023-03-01T15:12:32;15.00;38.90
18712;DHT22;9485;49.386;8.674;2023-03-01T15:17:58;15.00;39.20
18712;DHT22;9485;49.386;8.674;2023-03-01T15:23:27;14.90;39.10
18712;DHT22;9485;49.386;8.674;2023-03-01T15:28:52;14.90;38.80
18712;DHT22;9485;49.386;8.674;2023-03-01T15:34:23;14.80;38.70
18712;DHT22;9485;49.386;8.674;2023-03-01T15:39:55;14.60;39.20
18712;DHT22;9485;49.386;8.674;2023-03-01T15:45:23;15.00;39.50
18712;DHT22;9485;49.386;8.674;2023-03-01T15:50:54;14.40;39.40
18712;DHT22;9485;49.386;8.674;2023-03-01T15:56:19;14.30;39.40
18712;DHT22;9485;49.386;8.674;2023-03-01T16:01:41;14.10;39.70
18712;DHT22;9485;49.386;8.674;2023-03-01T16:07:02;13.90;39.70
18712;DHT22;9485;49.386;8.674;2023-03-01T16:12:25;13.80;40.10
18712;DHT22;9485;49.386;8.674;2023-03-01T16:17:47;13.70;39.90
18712;DHT22;9485;49.386;8.674;2023-03-01T16:23:14;13.50;40.20
18712;DHT22;9485;49.386;8.674;2023-03-01T16:28:37;13.30;40.30
18712;DHT22;9485;49.386;8.674;2023-03-01T16:34:01;13.20;40.20
18712;DHT22;9485;49.386;8.674;2023-03-01T16:39:29;12.90;40.30
18712;DHT22;9485;49.386;8.674;2023-03-01T16:44:56;12.70;40.50
18712;DHT22;9485;49.386;8.674;2023-03-01T16:50:42;12.60;40.80
18712;DHT22;9485;49.386;8.674;2023-03-01T16:56:08;12.30;41.00
18712;DHT22;9485;49.386;8.674;2023-03-01T17:01:33;12.10;41.10
18712;DHT22;9485;49.386;8.674;2023-03-01T17:06:56;11.90;41.10
18712;DHT22;9485;49.386;8.674;2023-03-01T17:12:17;11.70;41.30
18712;DHT22;9485;49.386;8.674;2023-03-01T17:17:40;11.60;41.50
18712;DHT22;9485;49.386;8.674;2023-03-01T17:23:01;11.40;41.60
18712;DHT22;9485;49.386;8.674;2023-03-01T17:28:22;11.10;41.70
18712;DHT22;9485;49.386;8.674;2023-03-01T17:33:45;10.90;42.00
18712;DHT22;9485;49.386;8.674;2023-03-01T17:39:06;10.70;42.30
18712;DHT22;9485;49.386;8.674;2023-03-01T17:44:27;10.60;42.50
18712;DHT22;9485;49.386;8.674;2023-03-01T17:49:49;10.40;42.60
18712;DHT22;9485;49.386;8.674;2023-03-01T17:55:10;10.20;43.00
18712;DHT22;9485;49.386;8.674;2023-03-01T18:00:31;10.00;43.00
18712;DHT22;9485;49.386;8.674;2023-03-01T18:05:54;9.90;43.30
18712;DHT22;9485;49.386;8.674;2023-03-01T18:11:15;9.70;43.40
18712;DHT22;9485;49.386;8.674;2023-03-01T18:16:36;9.50;43.50
18712;DHT22;9485;49.386;8.674;2023-03-01T18:21:59;9.40;43.70
18712;DHT22;9485;49.386;8.674;2023-03-01T18:27:20;9.30;44.00
18712;DHT22;9485;49.386;8.674;2023-03-01T18:32:41;9.20;44.20
18712;DHT22;9485;49.386;8.674;2023-03-01T18:38:04;9.10;44.40
18712;DHT22;9485;49.386;8.674;2023-03-01T18:43:25;9.00;44.50
18712;DHT22;9485;49.386;8.674;2023-03-01T18:48:48;8.90;44.70
18712;DHT22;9485;49.386;8.674;2023-03-01T18:54:11;8.80;44.80
18712;DHT22;9485;49.386;8.674;2023-03-01T18:59:32;8.80;45.40
18712;DHT22;9485;49.386;8.674;2023-03-01T19:04:52;8.80;45.10
18712;DHT22;9485;49.386;8.674;2023-03-01T19:10:20;8.70;45.20
18712;DHT22;9485;49.386;8.674;2023-03-01T19:15:40;8.80;45.80
18712;DHT22;9485;49.386;8.674;2023-03-01T19:21:03;8.70;45.60
18712;DHT22;9485;49.386;8.674;2023-03-01T19:26:26;8.80;45.90
18712;DHT22;9485;49.386;8.674;2023-03-01T19:31:47;8.80;45.70
18712;DHT22;9485;49.386;8.674;2023-03-01T19:37:08;8.80;45.60
18712;DHT22;9485;49.386;8.674;2023-03-01T19:42:30;8.80;45.90
18712;DHT22;9485;49.386;8.674;2023-03-01T19:47:51;8.80;46.00
18712;DHT22;9485;49.386;8.674;2023-03-01T19:53:12;8.80;45.70
18712;DHT22;9485;49.386;8.674;2023-03-01T19:58:37;8.80;46.10
18712;DHT22;9485;49.386;8.674;2023-03-01T20:03:58;8.80;46.20
18712;DHT22;9485;49.386;8.674;2023-03-01T20:09:20;8.90;46.30
18712;DHT22;9485;49.386;8.674;2023-03-01T20:14:42;8.90;46.70
18712;DHT22;9485;49.386;8.674;2023-03-01T20:20:04;8.90;46.60
18712;DHT22;9485;49.386;8.674;2023-03-01T20:25:25;8.90;46.50
18712;DHT22;9485;49.386;8.674;2023-03-01T20:30:47;8.90;46.40
18712;DHT22;9485;49.386;8.674;2023-03-01T20:36:08;8.80;46.50
18712;DHT22;9485;49.386;8.674;2023-03-01T20:41:29;8.80;46.80
18712;DHT22;9485;49.386;8.674;2023-03-01T20:46:51;8.80;46.70
18712;DHT22;9485;49.386;8.674;2023-03-01T20:52:12;8.70;46.70
18712;DHT22;9485;49.386;8.674;2023-03-01T20:57:33;8.30;46.50
18712;DHT22;9485;49.386;8.674;2023-03-01T21:02:55;8.60;46.80
18712;DHT22;9485;49.386;8.674;2023-03-01T21:08:16;8.60;46.90
18712;DHT22;9485;49.386;8.674;2023-03-01T21:13:37;8.60;47.10
18712;DHT22;9485;49.386;8.674;2023-03-01T21:18:59;8.60;47.10
18712;DHT22;9485;49.386;8.674;2023-03-01T21:24:20;8.60;47.30
18712;DHT22;9485;49.386;8.674;2023-03-01T21:29:43;8.50;47.20
18712;DHT22;9485;49.386;8.674;2023-03-01T21:35:07;8.50;47.30
18712;DHT22;9485;49.386;8.674;2023-03-01T21:40:28;8.50;48.10
18712;DHT22;9485;49.386;8.674;2023-03-01T21:45:49;8.50;48.50
18712;DHT22;9485;49.386;8.674;2023-03-01T21:51:13;8.50;47.80
18712;DHT22;9485;49.386;8.674;2023-03-01T21:56:34;8.50;47.90
18712;DHT22;9485;49.386;8.674;2023-03-01T22:01:57;8.40;47.70
18712;DHT22;9485;49.386;8.674;2023-03-01T22:07:19;8.30;48.30
18712;DHT22;9485;49.386;8.674;2023-03-01T22:12:39;8.30;47.80
18712;DHT22;9485;49.386;8.674;2023-03-01T22:18:00;8.20;48.10
18712;DHT22;9485;49.386;8.674;2023-03-01T22:23:23;8.10;48.10
18712;DHT22;9485;49.386;8.674;2023-03-01T22:28:44;8.00;48.60
18712;DHT22;9485;49.386;8.674;2023-03-01T22:34:04;8.00;48.30
18712;DHT22;9485;49.386;8.674;2023-03-01T22:39:27;7.90;48.30
18712;DHT22;9485;49.386;8.674;2023-03-01T22:44:47;7.90;48.40
18712;DHT22;9485;49.386;8.674;2023-03-01T22:50:12;7.80;48.40
18712;DHT22;9485;49.386;8.674;2023-03-01T22:55:35;7.80;48.70
18712;DHT22;9485;49.386;8.674;2023-03-01T23:00:56;7.80;48.70
18712;DHT22;9485;49.386;8.674;2023-03-01T23:06:17;7.80;48.60
18712;DHT22;9485;49.386;8.674;2023-03-01T23:11:40;7.70;48.80
18712;DHT22;9485;49.386;8.674;2023-03-01T23:17:01;7.60;48.90
18712;DHT22;9485;49.386;8.674;2023-03-01T23:22:23;7.50;49.10
18712;DHT22;9485;49.386;8.674;2023-03-01T23:27:45;7.30;49.40
18712;DHT22;9485;49.386;8.674;2023-03-01T23:33:06;7.20;49.40
18712;DHT22;9485;49.386;8.674;2023-03-01T23:38:27;7.10;49.80
18712;DHT22;9485;49.386;8.674;2023-03-01T23:43:50;7.00;50.70
18712;DHT22;9485;49.386;8.674;2023-03-01T23:49:13;7.00;50.10
18712;DHT22;9485;49.386;8.674;2023-03-01T23:54:35;7.00;50.00
18712;DHT22;9485;49.386;8.674;2023-03-01T23:59:58;7.00;50.30
